WetterOnline ( https://www.wetteronline.de )

Wetter aktuell Soro

Aktuelles Wetter: Flakkebjerg (34m)

6-stündlich | Neueste Meldungen
Ortszeit Temperatur Wetter
So, 16.01. 13:00 4.0° C bedeckt
So, 16.01. 7:00 2.8° C bedeckt
So, 16.01. 1:00 2.6° C bewölkt
Sa, 15.01. 19:00 3.1° C bedeckt
Sa, 15.01. 13:00 3.7° C fast wolkenlos
Sa, 15.01. 7:00 0.3° C leicht bewölkt
Sa, 15.01. 1:00 0.8° C wolkenlos
Fr, 14.01. 19:00 2.4° C wolkenlos
Ortszeit Temperatur Wetter
So, 16.01. 18:00 6.0° C bewölkt
So, 16.01. 17:00 5.6° C bedeckt
So, 16.01. 16:00 5.0° C fast wolkenlos
So, 16.01. 15:00 5.1° C bewölkt
So, 16.01. 14:00 4.8° C bedeckt
So, 16.01. 13:00 4.0° C bedeckt
Ortszeit Relative Feuchte Sichtweite
So, 16.01. 13:00 100% 5.0 km
So, 16.01. 7:00 99% 1.9 km
So, 16.01. 1:00 100% 5.0 km
Sa, 15.01. 19:00 92% 12 km
Sa, 15.01. 13:00 82% 14 km
Sa, 15.01. 7:00 100% 8 km
Sa, 15.01. 1:00 99% 8 km
Fr, 14.01. 19:00 94% 8 km
Ortszeit Relative Feuchte Sichtweite
So, 16.01. 18:00 94% 16 km
So, 16.01. 17:00 93% 12 km
So, 16.01. 16:00 96% 8 km
So, 16.01. 15:00 97% -
So, 16.01. 14:00 99% 5.0 km
So, 16.01. 13:00 100% 5.0 km
Ortszeit Niederschlagsmenge Niederschlagsart
So, 16.01. 13:00 0.1 l/m2 in 3 Std. Regenschauer
So, 16.01. 7:00 0.0 l/m2 in 3 Std. -
So, 16.01. 1:00 0.0 l/m2 in 3 Std. -
Sa, 15.01. 19:00 keine Meldung -
Sa, 15.01. 13:00 keine Meldung -
Sa, 15.01. 7:00 0.0 l/m2 in 3 Std. -
Sa, 15.01. 1:00 keine Meldung -
Fr, 14.01. 19:00 0.1 l/m2 in 12 Std. -
Ortszeit Niederschlagsmenge Niederschlagsart
So, 16.01. 18:00 0.0 l/m2 in 1 Std. Regenschauer
So, 16.01. 17:00 0.0 l/m2 in 1 Std. -
So, 16.01. 16:00 0.0 l/m2 in 1 Std. Regenschauer
So, 16.01. 15:00 0.0 l/m2 in 1 Std. -
So, 16.01. 14:00 0.1 l/m2 in 1 Std. Regenschauer
So, 16.01. 13:00 0.0 l/m2 in 1 Std. Regenschauer
Ortszeit Stärke Spitze Richtung
km/h Bft. km/h Grad Sektor
So, 16.01. 13:00 22 4 - 240° SW
So, 16.01. 7:00 14 3 - 240° SW
So, 16.01. 1:00 13 3 - 220° SW
Sa, 15.01. 19:00 9 2 - 210° SW
Sa, 15.01. 13:00 9 2 - 280° W
Sa, 15.01. 7:00 7 2 - 270° W
Sa, 15.01. 1:00 7 2 - 280° W
Fr, 14.01. 19:00 7 2 - 280° W
Ortszeit Stärke Spitze Richtung
km/h Bft. km/h Grad Sektor
So, 16.01. 18:00 30 5 - 270° W
So, 16.01. 17:00 26 4 - 250° W
So, 16.01. 16:00 24 4 - 250° W
So, 16.01. 15:00 24 4 - 250° W
So, 16.01. 14:00 22 4 - 250° W
So, 16.01. 13:00 22 4 - 240° SW
Ortszeit Untergrenze Bedeckung Gattung
total tief tief mittel hoch
So, 16.01. 13:00 90 m 8/8 8/8 - - -
So, 16.01. 7:00 60 m 8/8 8/8 - - -
So, 16.01. 1:00 120 m 8/8 5/8 - - -
Sa, 15.01. 19:00 690 m 8/8 8/8 - - -
Sa, 15.01. 13:00 6300 m 1/8 1/8 - - -
Sa, 15.01. 7:00 6600 m 3/8 3/8 - - -
Sa, 15.01. 1:00 - 0/8 0/8 - - -
Fr, 14.01. 19:00 - 0/8 0/8 - - -
Ortszeit Bedeckungsgrad in Achtel und Wolkenuntergrenze
So, 16.01. 18:00 1(420m) 7(810m)
So, 16.01. 17:00 1(570m) 3(870m) 8(1140m)
So, 16.01. 16:00 1(330m)
So, 16.01. 15:00 1(330m) 3(750m) 7(2100m)
So, 16.01. 14:00 1(150m) 7(270m) 8(330m)
So, 16.01. 13:00 3(90m) 5(150m) 8(300m)
Ortszeit Luftdruck NN (hPa) Tendenz (hPa in 3 Std.)
So, 16.01. 13:00 1014 - 1,4
So, 16.01. 7:00 1016 - 2,4
So, 16.01. 1:00 1021 - 2,3
Sa, 15.01. 19:00 1025 - 1,1
Sa, 15.01. 13:00 1027 - 0,6
Sa, 15.01. 7:00 1028 - 0,3
Sa, 15.01. 1:00 1029 + 0,1
Fr, 14.01. 19:00 1029 + 1,5
Ortszeit Luftdruck NN (hPa) Tendenz (hPa in 3 Std.)
So, 16.01. 18:00 1012 - 0,3
So, 16.01. 17:00 1012 - 0,6
So, 16.01. 16:00 1013 - 0,9
So, 16.01. 15:00 1013 - 1,1
So, 16.01. 14:00 1013 - 1,5
So, 16.01. 13:00 1014 - 1,4
Ortszeit Schneehöhe (cm)
So, 16.01. 13:00 -
So, 16.01. 7:00 -
So, 16.01. 1:00 -
Sa, 15.01. 19:00 -
Sa, 15.01. 13:00 -
Sa, 15.01. 7:00 -
Sa, 15.01. 1:00 -
Fr, 14.01. 19:00 -
Ortszeit Schneehöhe (cm)
So, 16.01. 18:00 -
So, 16.01. 17:00 -
So, 16.01. 16:00 -
So, 16.01. 15:00 -
So, 16.01. 14:00 -
So, 16.01. 13:00 -
Link zu dieser Seite / Seite empfehlen

Das Wetter in ...